sensor_id;sensor_type;location;lat;lon;timestamp;P1;durP1;ratioP1;P2;durP2;ratioP2
6033;SDS011;3045;43.226;27.858;2022-11-14T00:00:34;204.07;;;59.07;;
6033;SDS011;3045;43.226;27.858;2022-11-14T00:03:01;269.37;;;59.50;;
6033;SDS011;3045;43.226;27.858;2022-11-14T00:05:31;420.10;;;71.17;;
6033;SDS011;3045;43.226;27.858;2022-11-14T00:07:58;341.10;;;64.37;;
6033;SDS011;3045;43.226;27.858;2022-11-14T00:10:25;166.27;;;61.80;;
6033;SDS011;3045;43.226;27.858;2022-11-14T00:12:52;175.87;;;58.90;;
6033;SDS011;3045;43.226;27.858;2022-11-14T00:15:19;146.33;;;60.27;;
6033;SDS011;3045;43.226;27.858;2022-11-14T00:17:47;382.07;;;67.97;;
6033;SDS011;3045;43.226;27.858;2022-11-14T00:20:14;299.63;;;59.93;;
6033;SDS011;3045;43.226;27.858;2022-11-14T00:22:41;334.63;;;57.90;;
6033;SDS011;3045;43.226;27.858;2022-11-14T00:25:08;337.50;;;55.00;;
6033;SDS011;3045;43.226;27.858;2022-11-14T00:27:36;291.17;;;53.10;;
6033;SDS011;3045;43.226;27.858;2022-11-14T00:30:03;261.90;;;52.47;;
6033;SDS011;3045;43.226;27.858;2022-11-14T00:32:30;269.37;;;53.60;;
6033;SDS011;3045;43.226;27.858;2022-11-14T00:34:59;195.40;;;52.47;;
6033;SDS011;3045;43.226;27.858;2022-11-14T00:37:25;271.70;;;53.10;;
6033;SDS011;3045;43.226;27.858;2022-11-14T00:39:52;325.07;;;54.80;;
6033;SDS011;3045;43.226;27.858;2022-11-14T00:42:19;287.13;;;52.30;;
6033;SDS011;3045;43.226;27.858;2022-11-14T00:44:46;385.80;;;61.40;;
6033;SDS011;3045;43.226;27.858;2022-11-14T00:47:13;420.80;;;67.33;;
6033;SDS011;3045;43.226;27.858;2022-11-14T00:49:40;388.40;;;73.60;;
6033;SDS011;3045;43.226;27.858;2022-11-14T00:52:08;449.30;;;74.50;;
6033;SDS011;3045;43.226;27.858;2022-11-14T00:54:35;494.97;;;85.90;;
6033;SDS011;3045;43.226;27.858;2022-11-14T00:57:02;545.77;;;86.30;;
6033;SDS011;3045;43.226;27.858;2022-11-14T00:59:29;863.70;;;127.50;;
6033;SDS011;3045;43.226;27.858;2022-11-14T01:01:56;791.33;;;123.23;;
6033;SDS011;3045;43.226;27.858;2022-11-14T01:04:22;650.23;;;118.80;;
6033;SDS011;3045;43.226;27.858;2022-11-14T01:06:49;879.80;;;149.33;;
6033;SDS011;3045;43.226;27.858;2022-11-14T01:09:18;865.73;;;156.73;;
6033;SDS011;3045;43.226;27.858;2022-11-14T01:11:45;775.23;;;149.57;;
6033;SDS011;3045;43.226;27.858;2022-11-14T01:14:11;941.43;;;172.47;;
6033;SDS011;3045;43.226;27.858;2022-11-14T01:16:38;879.90;;;161.67;;
6033;SDS011;3045;43.226;27.858;2022-11-14T01:19:05;963.93;;;176.13;;
6033;SDS011;3045;43.226;27.858;2022-11-14T01:21:32;1080.27;;;188.90;;
6033;SDS011;3045;43.226;27.858;2022-11-14T01:23:59;1267.10;;;210.63;;
6033;SDS011;3045;43.226;27.858;2022-11-14T01:26:27;765.13;;;147.87;;
6033;SDS011;3045;43.226;27.858;2022-11-14T01:28:54;878.73;;;167.60;;
6033;SDS011;3045;43.226;27.858;2022-11-14T01:31:22;994.20;;;181.60;;
6033;SDS011;3045;43.226;27.858;2022-11-14T01:33:50;851.50;;;159.77;;
6033;SDS011;3045;43.226;27.858;2022-11-14T01:36:19;1100.10;;;196.17;;
6033;SDS011;3045;43.226;27.858;2022-11-14T01:38:47;871.33;;;166.67;;
6033;SDS011;3045;43.226;27.858;2022-11-14T01:41:18;1115.03;;;194.13;;
6033;SDS011;3045;43.226;27.858;2022-11-14T01:43:47;892.03;;;169.60;;
6033;SDS011;3045;43.226;27.858;2022-11-14T01:46:14;1306.43;;;215.00;;
6033;SDS011;3045;43.226;27.858;2022-11-14T01:48:46;1332.47;;;231.23;;
6033;SDS011;3045;43.226;27.858;2022-11-14T01:51:18;955.67;;;172.20;;
6033;SDS011;3045;43.226;27.858;2022-11-14T01:53:50;854.00;;;162.10;;
6033;SDS011;3045;43.226;27.858;2022-11-14T01:56:20;1397.43;;;224.67;;
6033;SDS011;3045;43.226;27.858;2022-11-14T01:58:53;830.40;;;159.00;;
6033;SDS011;3045;43.226;27.858;2022-11-14T02:01:23;1104.57;;;193.17;;
6033;SDS011;3045;43.226;27.858;2022-11-14T02:03:51;751.60;;;144.03;;
6033;SDS011;3045;43.226;27.858;2022-11-14T02:06:21;784.53;;;145.07;;
6033;SDS011;3045;43.226;27.858;2022-11-14T02:08:51;728.27;;;135.53;;
6033;SDS011;3045;43.226;27.858;2022-11-14T02:11:19;1111.77;;;186.17;;
6033;SDS011;3045;43.226;27.858;2022-11-14T02:13:46;800.93;;;145.20;;
6033;SDS011;3045;43.226;27.858;2022-11-14T02:16:14;677.30;;;129.63;;
6033;SDS011;3045;43.226;27.858;2022-11-14T02:18:41;744.00;;;135.23;;
6033;SDS011;3045;43.226;27.858;2022-11-14T02:21:10;553.23;;;114.20;;
6033;SDS011;3045;43.226;27.858;2022-11-14T02:23:37;976.37;;;168.53;;
6033;SDS011;3045;43.226;27.858;2022-11-14T02:26:05;883.73;;;150.70;;
6033;SDS011;3045;43.226;27.858;2022-11-14T02:28:32;967.73;;;157.20;;
6033;SDS011;3045;43.226;27.858;2022-11-14T02:30:59;528.87;;;115.23;;
6033;SDS011;3045;43.226;27.858;2022-11-14T02:33:26;623.70;;;125.17;;
6033;SDS011;3045;43.226;27.858;2022-11-14T02:35:53;876.63;;;151.33;;
6033;SDS011;3045;43.226;27.858;2022-11-14T02:38:21;861.87;;;151.90;;
6033;SDS011;3045;43.226;27.858;2022-11-14T02:40:48;791.77;;;136.80;;
6033;SDS011;3045;43.226;27.858;2022-11-14T02:43:15;863.43;;;153.27;;
6033;SDS011;3045;43.226;27.858;2022-11-14T02:45:41;807.57;;;134.93;;
6033;SDS011;3045;43.226;27.858;2022-11-14T02:48:08;580.87;;;108.53;;
6033;SDS011;3045;43.226;27.858;2022-11-14T02:50:35;546.87;;;105.73;;
6033;SDS011;3045;43.226;27.858;2022-11-14T02:53:02;499.13;;;93.80;;
6033;SDS011;3045;43.226;27.858;2022-11-14T02:55:30;944.97;;;145.37;;
6033;SDS011;3045;43.226;27.858;2022-11-14T02:57:57;456.50;;;84.17;;
6033;SDS011;3045;43.226;27.858;2022-11-14T03:00:24;923.93;;;146.47;;
6033;SDS011;3045;43.226;27.858;2022-11-14T03:02:51;596.70;;;107.67;;
6033;SDS011;3045;43.226;27.858;2022-11-14T03:05:19;654.17;;;119.63;;
6033;SDS011;3045;43.226;27.858;2022-11-14T03:07:46;828.27;;;144.27;;
6033;SDS011;3045;43.226;27.858;2022-11-14T03:10:13;534.10;;;98.87;;
6033;SDS011;3045;43.226;27.858;2022-11-14T03:12:41;691.03;;;115.77;;
6033;SDS011;3045;43.226;27.858;2022-11-14T03:15:08;861.77;;;130.70;;
6033;SDS011;3045;43.226;27.858;2022-11-14T03:17:35;467.10;;;93.37;;
6033;SDS011;3045;43.226;27.858;2022-11-14T03:20:02;667.07;;;113.03;;
6033;SDS011;3045;43.226;27.858;2022-11-14T03:22:30;427.53;;;80.03;;
6033;SDS011;3045;43.226;27.858;2022-11-14T03:24:57;469.43;;;78.67;;
6033;SDS011;3045;43.226;27.858;2022-11-14T03:27:24;772.83;;;98.90;;
6033;SDS011;3045;43.226;27.858;2022-11-14T03:29:52;744.83;;;97.37;;
6033;SDS011;3045;43.226;27.858;2022-11-14T03:32:19;400.43;;;61.90;;
6033;SDS011;3045;43.226;27.858;2022-11-14T03:34:46;684.83;;;92.50;;
6033;SDS011;3045;43.226;27.858;2022-11-14T03:37:13;437.97;;;66.03;;
6033;SDS011;3045;43.226;27.858;2022-11-14T03:39:40;860.13;;;122.90;;
6033;SDS011;3045;43.226;27.858;2022-11-14T03:42:07;614.83;;;89.87;;
6033;SDS011;3045;43.226;27.858;2022-11-14T03:44:33;450.33;;;69.30;;
6033;SDS011;3045;43.226;27.858;2022-11-14T03:47:02;738.13;;;106.93;;
6033;SDS011;3045;43.226;27.858;2022-11-14T03:49:29;552.40;;;77.47;;
6033;SDS011;3045;43.226;27.858;2022-11-14T03:51:56;546.20;;;77.70;;
6033;SDS011;3045;43.226;27.858;2022-11-14T03:54:23;550.40;;;73.80;;
6033;SDS011;3045;43.226;27.858;2022-11-14T03:56:49;631.00;;;86.70;;
6033;SDS011;3045;43.226;27.858;2022-11-14T03:59:16;691.63;;;100.43;;
6033;SDS011;3045;43.226;27.858;2022-11-14T04:01:43;298.97;;;56.47;;
6033;SDS011;3045;43.226;27.858;2022-11-14T04:04:12;437.30;;;72.03;;
6033;SDS011;3045;43.226;27.858;2022-11-14T04:06:39;449.00;;;75.93;;
6033;SDS011;3045;43.226;27.858;2022-11-14T04:09:06;370.07;;;63.80;;
6033;SDS011;3045;43.226;27.858;2022-11-14T04:11:33;679.83;;;104.40;;
6033;SDS011;3045;43.226;27.858;2022-11-14T04:14:00;695.13;;;99.73;;
6033;SDS011;3045;43.226;27.858;2022-11-14T04:16:26;741.40;;;99.90;;
6033;SDS011;3045;43.226;27.858;2022-11-14T04:18:53;885.23;;;117.87;;
6033;SDS011;3045;43.226;27.858;2022-11-14T04:21:22;289.37;;;57.73;;
6033;SDS011;3045;43.226;27.858;2022-11-14T04:23:49;392.47;;;65.70;;
6033;SDS011;3045;43.226;27.858;2022-11-14T04:26:16;389.87;;;64.70;;
6033;SDS011;3045;43.226;27.858;2022-11-14T04:28:42;435.70;;;72.03;;
6033;SDS011;3045;43.226;27.858;2022-11-14T04:31:09;542.67;;;82.80;;
6033;SDS011;3045;43.226;27.858;2022-11-14T04:33:36;566.13;;;86.87;;
6033;SDS011;3045;43.226;27.858;2022-11-14T04:36:03;621.53;;;94.60;;
6033;SDS011;3045;43.226;27.858;2022-11-14T04:38:32;630.37;;;94.10;;
6033;SDS011;3045;43.226;27.858;2022-11-14T04:40:59;296.93;;;51.27;;
6033;SDS011;3045;43.226;27.858;2022-11-14T04:43:25;270.20;;;50.93;;
6033;SDS011;3045;43.226;27.858;2022-11-14T04:45:52;376.30;;;53.33;;
6033;SDS011;3045;43.226;27.858;2022-11-14T04:48:19;381.73;;;54.50;;
6033;SDS011;3045;43.226;27.858;2022-11-14T04:50:46;582.30;;;73.93;;
6033;SDS011;3045;43.226;27.858;2022-11-14T04:53:13;356.23;;;47.10;;
6033;SDS011;3045;43.226;27.858;2022-11-14T04:55:42;359.70;;;49.53;;
6033;SDS011;3045;43.226;27.858;2022-11-14T04:58:09;403.17;;;54.23;;
6033;SDS011;3045;43.226;27.858;2022-11-14T05:00:36;370.27;;;46.57;;
6033;SDS011;3045;43.226;27.858;2022-11-14T05:03:03;269.27;;;46.50;;
6033;SDS011;3045;43.226;27.858;2022-11-14T05:05:30;374.10;;;49.77;;
6033;SDS011;3045;43.226;27.858;2022-11-14T05:07:57;352.43;;;52.27;;
6033;SDS011;3045;43.226;27.858;2022-11-14T05:10:24;147.20;;;38.33;;
6033;SDS011;3045;43.226;27.858;2022-11-14T05:12:53;163.97;;;41.17;;
6033;SDS011;3045;43.226;27.858;2022-11-14T05:15:20;149.67;;;39.57;;
6033;SDS011;3045;43.226;27.858;2022-11-14T05:17:48;101.77;;;39.83;;
6033;SDS011;3045;43.226;27.858;2022-11-14T05:20:15;73.13;;;38.60;;
6033;SDS011;3045;43.226;27.858;2022-11-14T05:22:42;65.77;;;39.43;;
6033;SDS011;3045;43.226;27.858;2022-11-14T05:25:09;57.47;;;38.50;;
6033;SDS011;3045;43.226;27.858;2022-11-14T05:27:36;57.93;;;37.77;;
6033;SDS011;3045;43.226;27.858;2022-11-14T05:30:05;44.37;;;35.93;;
6033;SDS011;3045;43.226;27.858;2022-11-14T05:32:33;53.37;;;36.97;;
6033;SDS011;3045;43.226;27.858;2022-11-14T05:35:00;49.70;;;35.57;;
6033;SDS011;3045;43.226;27.858;2022-11-14T05:37:27;63.60;;;37.87;;
6033;SDS011;3045;43.226;27.858;2022-11-14T05:39:53;54.33;;;37.00;;
6033;SDS011;3045;43.226;27.858;2022-11-14T05:42:20;95.57;;;39.40;;
6033;SDS011;3045;43.226;27.858;2022-11-14T05:44:47;169.13;;;43.67;;
6033;SDS011;3045;43.226;27.858;2022-11-14T05:47:16;96.37;;;44.33;;
6033;SDS011;3045;43.226;27.858;2022-11-14T05:49:43;84.47;;;44.03;;
6033;SDS011;3045;43.226;27.858;2022-11-14T05:52:10;68.70;;;42.57;;
6033;SDS011;3045;43.226;27.858;2022-11-14T05:54:37;56.83;;;40.10;;
6033;SDS011;3045;43.226;27.858;2022-11-14T05:57:04;78.00;;;44.30;;
6033;SDS011;3045;43.226;27.858;2022-11-14T05:59:31;67.47;;;44.07;;
6033;SDS011;3045;43.226;27.858;2022-11-14T06:01:58;79.83;;;45.23;;
6033;SDS011;3045;43.226;27.858;2022-11-14T06:04:26;87.77;;;43.83;;
6033;SDS011;3045;43.226;27.858;2022-11-14T06:06:53;58.80;;;39.63;;
6033;SDS011;3045;43.226;27.858;2022-11-14T06:09:20;58.67;;;41.50;;
6033;SDS011;3045;43.226;27.858;2022-11-14T06:11:47;65.20;;;43.17;;
6033;SDS011;3045;43.226;27.858;2022-11-14T06:14:14;89.40;;;43.70;;
6033;SDS011;3045;43.226;27.858;2022-11-14T06:16:41;86.43;;;44.83;;
6033;SDS011;3045;43.226;27.858;2022-11-14T06:19:08;58.73;;;35.67;;
6033;SDS011;3045;43.226;27.858;2022-11-14T06:21:36;43.63;;;20.27;;
6033;SDS011;3045;43.226;27.858;2022-11-14T06:24:03;29.63;;;16.77;;
6033;SDS011;3045;43.226;27.858;2022-11-14T06:26:31;33.70;;;16.67;;
6033;SDS011;3045;43.226;27.858;2022-11-14T06:28:58;45.60;;;20.43;;
6033;SDS011;3045;43.226;27.858;2022-11-14T06:31:25;43.37;;;28.60;;
6033;SDS011;3045;43.226;27.858;2022-11-14T06:33:52;44.97;;;27.13;;
6033;SDS011;3045;43.226;27.858;2022-11-14T06:36:20;35.80;;;25.53;;
6033;SDS011;3045;43.226;27.858;2022-11-14T06:38:49;31.10;;;26.30;;
6033;SDS011;3045;43.226;27.858;2022-11-14T06:41:16;37.67;;;27.77;;
6033;SDS011;3045;43.226;27.858;2022-11-14T06:43:45;31.30;;;27.20;;
6033;SDS011;3045;43.226;27.858;2022-11-14T06:46:13;30.27;;;24.53;;
6033;SDS011;3045;43.226;27.858;2022-11-14T06:48:42;34.63;;;26.60;;
6033;SDS011;3045;43.226;27.858;2022-11-14T06:51:11;26.93;;;24.00;;
6033;SDS011;3045;43.226;27.858;2022-11-14T06:53:38;27.30;;;22.47;;
6033;SDS011;3045;43.226;27.858;2022-11-14T06:56:08;29.07;;;22.90;;
6033;SDS011;3045;43.226;27.858;2022-11-14T06:58:36;34.03;;;26.00;;
6033;SDS011;3045;43.226;27.858;2022-11-14T07:01:07;43.23;;;30.40;;
6033;SDS011;3045;43.226;27.858;2022-11-14T07:03:38;56.47;;;34.83;;
6033;SDS011;3045;43.226;27.858;2022-11-14T07:06:05;53.83;;;34.17;;
6033;SDS011;3045;43.226;27.858;2022-11-14T07:08:33;46.07;;;32.17;;
6033;SDS011;3045;43.226;27.858;2022-11-14T07:11:02;51.23;;;33.33;;
6033;SDS011;3045;43.226;27.858;2022-11-14T07:13:31;45.60;;;32.33;;
6033;SDS011;3045;43.226;27.858;2022-11-14T07:15:59;39.20;;;30.93;;
6033;SDS011;3045;43.226;27.858;2022-11-14T07:18:28;48.77;;;30.87;;
6033;SDS011;3045;43.226;27.858;2022-11-14T07:20:56;45.27;;;30.90;;
6033;SDS011;3045;43.226;27.858;2022-11-14T07:23:24;42.23;;;31.37;;
6033;SDS011;3045;43.226;27.858;2022-11-14T07:25:51;32.80;;;27.87;;
6033;SDS011;3045;43.226;27.858;2022-11-14T07:28:19;47.60;;;27.97;;
6033;SDS011;3045;43.226;27.858;2022-11-14T07:30:47;39.90;;;26.50;;
6033;SDS011;3045;43.226;27.858;2022-11-14T07:33:14;39.20;;;24.60;;
6033;SDS011;3045;43.226;27.858;2022-11-14T07:35:41;35.57;;;25.17;;
6033;SDS011;3045;43.226;27.858;2022-11-14T07:38:08;37.97;;;25.17;;
6033;SDS011;3045;43.226;27.858;2022-11-14T07:40:35;33.23;;;24.03;;
6033;SDS011;3045;43.226;27.858;2022-11-14T07:43:02;33.77;;;24.43;;
6033;SDS011;3045;43.226;27.858;2022-11-14T07:45:29;28.30;;;22.60;;
6033;SDS011;3045;43.226;27.858;2022-11-14T07:47:58;29.13;;;22.43;;
6033;SDS011;3045;43.226;27.858;2022-11-14T07:50:27;36.97;;;22.53;;
6033;SDS011;3045;43.226;27.858;2022-11-14T07:52:55;33.33;;;22.90;;
6033;SDS011;3045;43.226;27.858;2022-11-14T07:55:22;33.80;;;21.83;;
6033;SDS011;3045;43.226;27.858;2022-11-14T07:57:54;33.63;;;22.23;;
6033;SDS011;3045;43.226;27.858;2022-11-14T08:00:24;36.33;;;23.10;;
6033;SDS011;3045;43.226;27.858;2022-11-14T08:02:51;32.47;;;21.07;;
6033;SDS011;3045;43.226;27.858;2022-11-14T08:05:21;33.53;;;21.37;;
6033;SDS011;3045;43.226;27.858;2022-11-14T08:07:49;36.23;;;22.03;;
6033;SDS011;3045;43.226;27.858;2022-11-14T08:10:17;36.30;;;23.50;;
6033;SDS011;3045;43.226;27.858;2022-11-14T08:12:44;30.63;;;22.13;;
6033;SDS011;3045;43.226;27.858;2022-11-14T08:15:12;32.70;;;22.57;;
6033;SDS011;3045;43.226;27.858;2022-11-14T08:17:39;28.70;;;20.50;;
6033;SDS011;3045;43.226;27.858;2022-11-14T08:20:07;33.00;;;20.80;;
6033;SDS011;3045;43.226;27.858;2022-11-14T08:22:36;30.77;;;20.80;;
6033;SDS011;3045;43.226;27.858;2022-11-14T08:25:04;39.33;;;22.00;;
6033;SDS011;3045;43.226;27.858;2022-11-14T08:27:31;35.77;;;23.43;;
6033;SDS011;3045;43.226;27.858;2022-11-14T08:29:58;34.53;;;22.77;;
6033;SDS011;3045;43.226;27.858;2022-11-14T08:32:25;28.43;;;22.50;;
6033;SDS011;3045;43.226;27.858;2022-11-14T08:34:52;32.63;;;21.53;;
6033;SDS011;3045;43.226;27.858;2022-11-14T08:37:19;33.77;;;22.33;;
6033;SDS011;3045;43.226;27.858;2022-11-14T08:39:47;34.13;;;21.33;;
6033;SDS011;3045;43.226;27.858;2022-11-14T08:42:14;29.37;;;22.60;;
6033;SDS011;3045;43.226;27.858;2022-11-14T08:44:41;33.87;;;21.47;;
6033;SDS011;3045;43.226;27.858;2022-11-14T08:47:08;31.53;;;21.90;;
6033;SDS011;3045;43.226;27.858;2022-11-14T08:49:35;32.80;;;22.13;;
6033;SDS011;3045;43.226;27.858;2022-11-14T08:52:02;31.00;;;23.23;;
6033;SDS011;3045;43.226;27.858;2022-11-14T08:54:30;29.30;;;22.73;;
6033;SDS011;3045;43.226;27.858;2022-11-14T08:56:58;30.97;;;22.93;;
6033;SDS011;3045;43.226;27.858;2022-11-14T08:59:25;32.40;;;23.10;;
6033;SDS011;3045;43.226;27.858;2022-11-14T09:01:52;35.33;;;22.63;;
6033;SDS011;3045;43.226;27.858;2022-11-14T09:04:19;34.33;;;22.57;;
6033;SDS011;3045;43.226;27.858;2022-11-14T09:06:46;33.43;;;22.47;;
6033;SDS011;3045;43.226;27.858;2022-11-14T09:09:12;35.67;;;21.43;;
6033;SDS011;3045;43.226;27.858;2022-11-14T09:11:40;38.47;;;22.33;;
6033;SDS011;3045;43.226;27.858;2022-11-14T09:14:08;35.80;;;22.10;;
6033;SDS011;3045;43.226;27.858;2022-11-14T09:16:35;38.27;;;22.57;;
6033;SDS011;3045;43.226;27.858;2022-11-14T09:19:02;31.63;;;20.53;;
6033;SDS011;3045;43.226;27.858;2022-11-14T09:21:31;31.63;;;21.93;;
6033;SDS011;3045;43.226;27.858;2022-11-14T09:23:58;36.47;;;22.13;;
6033;SDS011;3045;43.226;27.858;2022-11-14T09:26:25;35.57;;;21.53;;
6033;SDS011;3045;43.226;27.858;2022-11-14T09:28:52;35.03;;;22.27;;
6033;SDS011;3045;43.226;27.858;2022-11-14T09:31:20;36.57;;;23.13;;
6033;SDS011;3045;43.226;27.858;2022-11-14T09:33:47;34.00;;;22.30;;
6033;SDS011;3045;43.226;27.858;2022-11-14T09:36:14;35.23;;;21.40;;
6033;SDS011;3045;43.226;27.858;2022-11-14T09:38:42;36.37;;;22.87;;
6033;SDS011;3045;43.226;27.858;2022-11-14T09:41:23;38.50;;;21.77;;
6033;SDS011;3045;43.226;27.858;2022-11-14T09:44:00;40.43;;;22.83;;
6033;SDS011;3045;43.226;27.858;2022-11-14T09:46:43;36.70;;;21.63;;
6033;SDS011;3045;43.226;27.858;2022-11-14T09:49:18;39.53;;;23.03;;
6033;SDS011;3045;43.226;27.858;2022-11-14T09:51:55;49.37;;;24.23;;
6033;SDS011;3045;43.226;27.858;2022-11-14T09:54:31;39.17;;;23.40;;
6033;SDS011;3045;43.226;27.858;2022-11-14T09:57:12;39.70;;;22.63;;
6033;SDS011;3045;43.226;27.858;2022-11-14T09:59:40;38.23;;;21.30;;
6033;SDS011;3045;43.226;27.858;2022-11-14T10:02:15;36.07;;;22.17;;
6033;SDS011;3045;43.226;27.858;2022-11-14T10:04:57;35.93;;;20.33;;
6033;SDS011;3045;43.226;27.858;2022-11-14T10:07:37;33.80;;;21.27;;
6033;SDS011;3045;43.226;27.858;2022-11-14T10:10:25;36.27;;;21.53;;
6033;SDS011;3045;43.226;27.858;2022-11-14T10:13:02;35.80;;;22.50;;
6033;SDS011;3045;43.226;27.858;2022-11-14T10:15:40;37.20;;;21.90;;
6033;SDS011;3045;43.226;27.858;2022-11-14T10:18:17;35.20;;;22.00;;
6033;SDS011;3045;43.226;27.858;2022-11-14T10:20:54;38.30;;;22.93;;
6033;SDS011;3045;43.226;27.858;2022-11-14T10:23:30;42.30;;;23.83;;
6033;SDS011;3045;43.226;27.858;2022-11-14T10:26:10;40.80;;;22.53;;
6033;SDS011;3045;43.226;27.858;2022-11-14T10:28:46;34.20;;;23.07;;
6033;SDS011;3045;43.226;27.858;2022-11-14T10:31:22;35.27;;;23.03;;
6033;SDS011;3045;43.226;27.858;2022-11-14T10:34:01;37.10;;;23.70;;
6033;SDS011;3045;43.226;27.858;2022-11-14T10:36:43;38.67;;;24.60;;
6033;SDS011;3045;43.226;27.858;2022-11-14T10:39:16;40.53;;;23.63;;
6033;SDS011;3045;43.226;27.858;2022-11-14T10:41:48;40.17;;;22.70;;
6033;SDS011;3045;43.226;27.858;2022-11-14T10:44:22;35.73;;;24.17;;
6033;SDS011;3045;43.226;27.858;2022-11-14T10:46:55;44.63;;;24.83;;
6033;SDS011;3045;43.226;27.858;2022-11-14T10:49:30;37.10;;;24.07;;
6033;SDS011;3045;43.226;27.858;2022-11-14T10:52:02;41.57;;;24.17;;
6033;SDS011;3045;43.226;27.858;2022-11-14T10:54:33;42.07;;;24.67;;
6033;SDS011;3045;43.226;27.858;2022-11-14T10:57:11;35.80;;;23.63;;
6033;SDS011;3045;43.226;27.858;2022-11-14T10:59:41;45.50;;;24.57;;
6033;SDS011;3045;43.226;27.858;2022-11-14T11:02:08;40.27;;;23.87;;
6033;SDS011;3045;43.226;27.858;2022-11-14T11:04:37;37.93;;;22.73;;
6033;SDS011;3045;43.226;27.858;2022-11-14T11:07:19;37.47;;;22.93;;
6033;SDS011;3045;43.226;27.858;2022-11-14T11:10:06;34.80;;;21.63;;
6033;SDS011;3045;43.226;27.858;2022-11-14T11:13:26;28.87;;;19.37;;
6033;SDS011;3045;43.226;27.858;2022-11-14T11:15:57;31.40;;;19.73;;
6033;SDS011;3045;43.226;27.858;2022-11-14T11:18:27;30.83;;;19.30;;
6033;SDS011;3045;43.226;27.858;2022-11-14T11:21:06;41.83;;;22.07;;
6033;SDS011;3045;43.226;27.858;2022-11-14T11:23:34;34.93;;;20.43;;
6033;SDS011;3045;43.226;27.858;2022-11-14T11:26:03;30.57;;;19.50;;
6033;SDS011;3045;43.226;27.858;2022-11-14T11:28:33;37.67;;;21.40;;
6033;SDS011;3045;43.226;27.858;2022-11-14T11:31:02;40.77;;;22.53;;
6033;SDS011;3045;43.226;27.858;2022-11-14T11:33:31;35.90;;;22.03;;
6033;SDS011;3045;43.226;27.858;2022-11-14T11:35:59;63.03;;;35.73;;
6033;SDS011;3045;43.226;27.858;2022-11-14T11:38:30;36.60;;;21.97;;
6033;SDS011;3045;43.226;27.858;2022-11-14T11:41:11;33.27;;;20.80;;
6033;SDS011;3045;43.226;27.858;2022-11-14T11:43:46;35.50;;;20.70;;
6033;SDS011;3045;43.226;27.858;2022-11-14T11:46:18;37.63;;;22.17;;
6033;SDS011;3045;43.226;27.858;2022-11-14T11:48:52;35.27;;;21.13;;
6033;SDS011;3045;43.226;27.858;2022-11-14T11:51:27;39.33;;;21.23;;
6033;SDS011;3045;43.226;27.858;2022-11-14T11:53:57;40.37;;;22.27;;
6033;SDS011;3045;43.226;27.858;2022-11-14T11:56:30;38.47;;;20.43;;
6033;SDS011;3045;43.226;27.858;2022-11-14T11:59:00;33.37;;;22.03;;
6033;SDS011;3045;43.226;27.858;2022-11-14T12:01:45;32.43;;;21.13;;
6033;SDS011;3045;43.226;27.858;2022-11-14T12:04:13;40.80;;;22.13;;
6033;SDS011;3045;43.226;27.858;2022-11-14T12:06:41;37.13;;;21.40;;
6033;SDS011;3045;43.226;27.858;2022-11-14T12:09:17;43.30;;;22.80;;
6033;SDS011;3045;43.226;27.858;2022-11-14T12:11:47;38.13;;;21.13;;
6033;SDS011;3045;43.226;27.858;2022-11-14T12:14:35;35.00;;;22.20;;
6033;SDS011;3045;43.226;27.858;2022-11-14T12:26:28;35.90;;;20.77;;
6033;SDS011;3045;43.226;27.858;2022-11-14T12:29:24;38.73;;;21.23;;
6033;SDS011;3045;43.226;27.858;2022-11-14T12:32:02;34.53;;;21.43;;
6033;SDS011;3045;43.226;27.858;2022-11-14T12:34:32;32.33;;;20.93;;
6033;SDS011;3045;43.226;27.858;2022-11-14T12:37:06;34.10;;;22.00;;
6033;SDS011;3045;43.226;27.858;2022-11-14T12:39:34;36.83;;;22.30;;
6033;SDS011;3045;43.226;27.858;2022-11-14T12:42:05;37.60;;;22.50;;
6033;SDS011;3045;43.226;27.858;2022-11-14T12:44:36;35.73;;;21.20;;
6033;SDS011;3045;43.226;27.858;2022-11-14T12:47:17;33.73;;;19.97;;
6033;SDS011;3045;43.226;27.858;2022-11-14T12:50:01;34.20;;;20.40;;
6033;SDS011;3045;43.226;27.858;2022-11-14T12:52:47;40.00;;;20.50;;
6033;SDS011;3045;43.226;27.858;2022-11-14T12:58:17;31.60;;;19.47;;
6033;SDS011;3045;43.226;27.858;2022-11-14T13:01:06;38.07;;;24.30;;
6033;SDS011;3045;43.226;27.858;2022-11-14T13:03:49;32.13;;;19.93;;
6033;SDS011;3045;43.226;27.858;2022-11-14T13:06:25;28.00;;;18.00;;
6033;SDS011;3045;43.226;27.858;2022-11-14T13:11:54;24.13;;;16.80;;
6033;SDS011;3045;43.226;27.858;2022-11-14T13:14:50;30.57;;;18.20;;
6033;SDS011;3045;43.226;27.858;2022-11-14T13:17:35;26.10;;;16.97;;
6033;SDS011;3045;43.226;27.858;2022-11-14T13:20:24;28.80;;;18.03;;
6033;SDS011;3045;43.226;27.858;2022-11-14T13:29:01;29.93;;;17.90;;
6033;SDS011;3045;43.226;27.858;2022-11-14T13:31:42;36.30;;;18.33;;
6033;SDS011;3045;43.226;27.858;2022-11-14T13:34:27;33.60;;;19.53;;
6033;SDS011;3045;43.226;27.858;2022-11-14T13:37:01;33.10;;;19.10;;
6033;SDS011;3045;43.226;27.858;2022-11-14T13:39:39;33.87;;;21.00;;
6033;SDS011;3045;43.226;27.858;2022-11-14T13:42:21;29.30;;;19.07;;
6033;SDS011;3045;43.226;27.858;2022-11-14T13:51:06;37.83;;;20.00;;
6033;SDS011;3045;43.226;27.858;2022-11-14T13:53:37;29.63;;;19.50;;
6033;SDS011;3045;43.226;27.858;2022-11-14T13:56:09;29.70;;;19.03;;
6033;SDS011;3045;43.226;27.858;2022-11-14T13:58:53;28.87;;;18.53;;
6033;SDS011;3045;43.226;27.858;2022-11-14T14:01:41;27.10;;;18.13;;
6033;SDS011;3045;43.226;27.858;2022-11-14T14:04:32;28.33;;;17.90;;
6033;SDS011;3045;43.226;27.858;2022-11-14T14:07:10;37.73;;;18.67;;
6033;SDS011;3045;43.226;27.858;2022-11-14T14:09:45;27.93;;;18.30;;
6033;SDS011;3045;43.226;27.858;2022-11-14T14:12:24;31.43;;;17.60;;
6033;SDS011;3045;43.226;27.858;2022-11-14T14:15:08;31.10;;;18.10;;
6033;SDS011;3045;43.226;27.858;2022-11-14T14:17:47;28.10;;;17.37;;
6033;SDS011;3045;43.226;27.858;2022-11-14T14:20:28;31.43;;;18.20;;
6033;SDS011;3045;43.226;27.858;2022-11-14T14:23:05;35.77;;;18.33;;
6033;SDS011;3045;43.226;27.858;2022-11-14T14:25:42;29.37;;;18.73;;
6033;SDS011;3045;43.226;27.858;2022-11-14T14:28:16;31.17;;;18.23;;
6033;SDS011;3045;43.226;27.858;2022-11-14T14:30:59;32.03;;;18.33;;
6033;SDS011;3045;43.226;27.858;2022-11-14T14:33:39;27.40;;;18.17;;
6033;SDS011;3045;43.226;27.858;2022-11-14T14:36:17;23.80;;;17.83;;
6033;SDS011;3045;43.226;27.858;2022-11-14T14:38:46;30.03;;;17.93;;
6033;SDS011;3045;43.226;27.858;2022-11-14T14:41:14;31.70;;;18.57;;
6033;SDS011;3045;43.226;27.858;2022-11-14T14:43:48;31.93;;;19.50;;
6033;SDS011;3045;43.226;27.858;2022-11-14T14:46:24;27.67;;;18.37;;
6033;SDS011;3045;43.226;27.858;2022-11-14T14:48:53;29.47;;;18.03;;
6033;SDS011;3045;43.226;27.858;2022-11-14T14:51:29;34.23;;;17.43;;
6033;SDS011;3045;43.226;27.858;2022-11-14T14:53:58;29.33;;;17.03;;
6033;SDS011;3045;43.226;27.858;2022-11-14T14:56:25;20.83;;;16.00;;
6033;SDS011;3045;43.226;27.858;2022-11-14T14:58:53;26.90;;;16.63;;
6033;SDS011;3045;43.226;27.858;2022-11-14T15:01:20;21.67;;;15.77;;
6033;SDS011;3045;43.226;27.858;2022-11-14T15:03:50;29.33;;;17.23;;
6033;SDS011;3045;43.226;27.858;2022-11-14T15:06:22;29.60;;;18.10;;
6033;SDS011;3045;43.226;27.858;2022-11-14T15:08:57;40.73;;;19.37;;
6033;SDS011;3045;43.226;27.858;2022-11-14T15:11:26;44.67;;;18.27;;
6033;SDS011;3045;43.226;27.858;2022-11-14T15:13:55;24.13;;;17.10;;